Terminal Aerodrome Forecast
Issued by NWS Cleveland, OH

Home | Current Version | Previous Version | Graphics & Text | Print | Product List | Glossary On
Versions: 1 2 3 4 5 6 7 8 9 10 11 12 13 14 15 16 17 18 19 20
000
FTUS41 KCLE 011125
TAFCAK
TAF
KCAK 011125Z 0112/0212 23009KT 2SM -DZ BR OVC003
     FM011400 24007KT 4SM BR OVC007
     FM011900 30005KT P6SM OVC035
     FM020200 02005KT 4SM BR OVC015
     FM020400 05004KT 4SM -RA BR OVC004
     FM021100 31007KT 2SM BR OVC003=

USA.gov is the U.S. government's official web portal to all federal, state and local government web resources and services.